Time;durP1;ratioP1;P1;durP2;ratioP2;P2;SDS_P1;SDS_P2;PMS_P1;PMS_P2;Temp;Humidity;BMP_temperature;BMP_pressure;BME280_temperature;BME280_humidity;BME280_pressure;Samples;Min_cycle;Max_cycle;Signal;HPM_P1;HPM_P2
2022/04/05 00:01:21;;;;;;;5.05;2.90;;;9.20;65.20;;;;;;6202492;28;20129;-82
2022/04/05 00:04:23;;;;;;;5.93;4.00;;;9.20;65.30;;;;;;6202334;28;20061;-82
2022/04/05 00:07:26;;;;;;;11.10;3.38;;;9.10;65.30;;;;;;6202877;28;20125;-82
2022/04/05 00:10:28;;;;;;;6.55;3.00;;;9.10;65.40;;;;;;6202603;28;20547;-82
2022/04/05 00:13:31;;;;;;;7.90;4.18;;;9.10;65.60;;;;;;6202658;28;20101;-83
2022/04/05 00:16:33;;;;;;;11.63;4.38;;;9.10;65.40;;;;;;6202820;28;20058;-82
2022/04/05 00:19:35;;;;;;;6.72;3.72;;;9.10;65.50;;;;;;6202705;28;20200;-82
2022/04/05 00:22:37;;;;;;;7.55;3.80;;;9.20;65.70;;;;;;6207239;28;20078;-82
2022/04/05 00:25:39;;;;;;;5.45;3.22;;;9.20;65.80;;;;;;6201566;28;20129;-81
2022/04/05 00:28:44;;;;;;;7.95;3.90;;;9.20;65.60;;;;;;6200457;28;20619;-83
2022/04/05 00:31:46;;;;;;;6.10;3.33;;;9.20;65.50;;;;;;6202574;28;20500;-83
2022/04/05 00:34:47;;;;;;;6.35;3.55;;;9.10;65.50;;;;;;6201124;28;20050;-82
2022/04/05 00:37:49;;;;;;;6.80;3.72;;;9.10;65.70;;;;;;6201907;28;20520;-83
2022/04/05 00:40:51;;;;;;;5.20;3.58;;;9.10;65.90;;;;;;6196954;28;20089;-82
2022/04/05 00:43:54;;;;;;;6.35;3.97;;;9.10;65.80;;;;;;6202587;28;20065;-81
2022/04/05 00:46:56;;;;;;;8.02;3.85;;;9.00;65.80;;;;;;6201087;28;20046;-82
2022/04/05 00:49:58;;;;;;;5.68;3.20;;;9.00;65.80;;;;;;6201624;28;20074;-81
2022/04/05 00:53:02;;;;;;;8.40;3.90;;;9.10;66.60;;;;;;6201355;28;20561;-82
2022/04/05 00:56:13;;;;;;;11.10;4.18;;;9.10;67.50;;;;;;6202660;28;20522;-82
2022/04/05 00:59:19;;;;;;;7.38;3.83;;;9.10;67.90;;;;;;6207159;28;20050;-82
2022/04/05 01:02:22;;;;;;;12.98;5.30;;;9.10;67.60;;;;;;6201519;28;20519;-82
2022/04/05 01:05:42;;;;;;;5.63;3.65;;;9.10;68.00;;;;;;6202584;28;20052;-82
2022/04/05 01:08:47;;;;;;;6.47;3.45;;;9.00;68.50;;;;;;6205772;28;20117;-83
2022/04/05 01:11:49;;;;;;;9.30;3.55;;;9.00;67.90;;;;;;6201480;28;20047;-82
2022/04/05 01:14:53;;;;;;;5.93;3.80;;;9.00;68.00;;;;;;6201335;28;20125;-81
2022/04/05 01:17:55;;;;;;;7.22;3.28;;;9.00;68.20;;;;;;6200264;28;20106;-82
2022/04/05 01:20:58;;;;;;;6.30;3.63;;;8.90;68.60;;;;;;6202529;28;20054;-82
2022/04/05 01:24:09;;;;;;;5.85;3.78;;;8.80;70.00;;;;;;6202492;28;20050;-82
2022/04/05 01:27:17;;;;;;;8.25;3.90;;;8.80;71.10;;;;;;6201938;28;20046;-82
2022/04/05 01:30:19;;;;;;;7.50;3.75;;;8.80;71.80;;;;;;6201095;28;20046;-82
2022/04/05 01:33:21;;;;;;;8.68;5.00;;;8.70;72.30;;;;;;6200571;28;20050;-82
2022/04/05 01:36:23;;;;;;;6.85;3.80;;;8.70;73.00;;;;;;6201838;28;20521;-82
2022/04/05 01:39:28;;;;;;;6.72;3.97;;;8.60;73.00;;;;;;6201605;28;20518;-82
2022/04/05 01:42:34;;;;;;;6.72;4.15;;;8.60;73.10;;;;;;6215420;23;20102;-82
2022/04/05 01:45:36;;;;;;;7.78;4.03;;;8.60;73.30;;;;;;6201200;28;20137;-82
2022/04/05 01:48:41;;;;;;;4.18;2.95;;;8.60;72.70;;;;;;6200523;28;20500;-82
2022/04/05 01:51:54;;;;;;;5.15;3.38;;;8.60;72.00;;;;;;6199145;28;20054;-82
2022/04/05 01:59:08;;;;;;;7.80;3.80;;;8.50;72.00;;;;;;6149286;28;20055;-82
2022/04/05 02:02:18;;;;;;;7.28;4.22;;;8.60;71.90;;;;;;6160634;28;20053;-82
2022/04/05 02:09:08;;;;;;;5.30;2.88;;;8.60;71.40;;;;;;6140534;28;20043;-82
2022/04/05 02:12:13;;;;;;;7.75;3.58;;;8.70;71.00;;;;;;6156602;28;20502;-82
2022/04/05 02:47:36;;;;;;;4.47;3.07;;;8.70;70.70;;;;;;6197086;28;20061;-84
2022/04/05 02:50:38;;;;;;;7.93;3.17;;;8.70;70.60;;;;;;6205060;28;20050;-83
2022/04/05 02:53:40;;;;;;;7.63;3.60;;;8.80;70.10;;;;;;6209751;28;20149;-84
2022/04/05 02:56:43;;;;;;;6.85;3.55;;;8.70;70.00;;;;;;6210194;28;20427;-84
2022/04/05 02:59:50;;;;;;;8.50;3.35;;;8.80;70.30;;;;;;6208873;28;20054;-84
2022/04/05 03:02:56;;;;;;;7.82;3.55;;;8.80;70.10;;;;;;6208539;28;20042;-84
2022/04/05 03:05:58;;;;;;;5.85;3.78;;;8.80;70.00;;;;;;6208898;28;20042;-84
2022/04/05 03:09:00;;;;;;;7.65;4.22;;;8.90;70.00;;;;;;6209845;28;20118;-84
2022/04/05 03:12:10;;;;;;;7.78;3.65;;;8.90;71.20;;;;;;6212602;28;20053;-83
2022/04/05 03:15:12;;;;;;;7.30;3.58;;;8.90;72.80;;;;;;6211347;28;20057;-84
2022/04/05 03:18:15;;;;;;;8.98;4.30;;;8.90;73.80;;;;;;6211081;28;20110;-84
2022/04/05 03:21:17;;;;;;;7.13;3.38;;;8.70;74.70;;;;;;6206737;28;20480;-83
2022/04/05 03:43:12;;;;;;;9.60;4.22;;;8.00;82.00;;;;;;6063660;28;20266;-83
2022/04/05 03:46:16;;;;;;;10.02;4.40;;;7.80;83.90;;;;;;6175754;28;20054;-83
2022/04/05 03:53:12;;;;;;;8.18;5.28;;;7.50;88.50;;;;;;6195106;23;20145;-85
2022/04/05 03:56:13;;;;;;;9.05;4.80;;;7.40;90.00;;;;;;6183596;28;20496;-84
2022/04/05 03:59:17;;;;;;;10.32;5.70;;;7.40;90.60;;;;;;6182997;28;20046;-84
2022/04/05 04:02:18;;;;;;;8.93;5.22;;;7.40;90.80;;;;;;6185565;28;20126;-85
2022/04/05 04:05:20;;;;;;;8.38;5.70;;;7.40;91.20;;;;;;6188158;28;20578;-86
2022/04/05 04:08:22;;;;;;;9.80;5.35;;;7.30;91.00;;;;;;6184255;28;20129;-86
2022/04/05 04:11:24;;;;;;;7.75;4.80;;;7.20;91.20;;;;;;6184900;28;20066;-84
2022/04/05 04:14:27;;;;;;;7.43;4.22;;;7.30;91.70;;;;;;6185110;28;20499;-84
2022/04/05 04:17:29;;;;;;;13.05;7.32;;;7.20;91.20;;;;;;6183258;28;20053;-85
2022/04/05 04:20:31;;;;;;;6.78;4.07;;;7.10;91.10;;;;;;6184691;28;20054;-84
2022/04/05 04:23:33;;;;;;;10.25;5.15;;;7.10;91.10;;;;;;6183397;28;20050;-85
2022/04/05 04:26:34;;;;;;;9.05;5.32;;;7.00;90.90;;;;;;6181925;28;20046;-83
2022/04/05 04:29:38;;;;;;;7.60;5.13;;;7.20;91.10;;;;;;6179944;28;20070;-83
2022/04/05 04:32:40;;;;;;;6.28;4.40;;;7.20;90.90;;;;;;6180062;28;20129;-83
2022/04/05 04:35:43;;;;;;;8.07;5.28;;;7.20;90.70;;;;;;6179956;28;20054;-83
2022/04/05 04:38:45;;;;;;;8.85;5.40;;;7.20;90.30;;;;;;6178398;28;20047;-83
2022/04/05 04:41:47;;;;;;;10.35;5.47;;;7.30;90.30;;;;;;6178597;28;20112;-83
2022/04/05 04:44:50;;;;;;;10.63;5.43;;;7.30;90.00;;;;;;6178304;28;20129;-82
2022/04/05 04:47:52;;;;;;;8.88;4.93;;;7.20;90.00;;;;;;6178731;28;20070;-83
2022/04/05 04:50:54;;;;;;;14.38;6.07;;;7.30;89.80;;;;;;6178563;28;20102;-82
2022/04/05 04:53:56;;;;;;;10.07;4.70;;;7.40;89.50;;;;;;6178599;28;20272;-82
2022/04/05 04:56:58;;;;;;;7.95;5.68;;;7.40;88.80;;;;;;6178327;28;20431;-82
2022/04/05 05:00:01;;;;;;;7.97;5.13;;;7.40;88.80;;;;;;6178465;28;20115;-83
2022/04/05 05:03:03;;;;;;;8.93;5.40;;;7.40;88.40;;;;;;6179967;28;20515;-82
2022/04/05 05:06:05;;;;;;;10.85;5.57;;;7.40;88.30;;;;;;6178747;28;20126;-82
2022/04/05 05:09:06;;;;;;;7.32;5.18;;;7.40;88.60;;;;;;6178492;28;20463;-83
2022/04/05 05:12:10;;;;;;;8.45;4.75;;;7.40;88.40;;;;;;6178948;28;20046;-82
2022/04/05 05:15:18;;;;;;;11.50;4.65;;;7.40;88.50;;;;;;6178583;28;20054;-82
2022/04/05 05:18:19;;;;;;;7.88;4.10;;;7.40;89.00;;;;;;6178215;28;20211;-83
2022/04/05 05:21:23;;;;;;;9.98;5.13;;;7.40;89.00;;;;;;6178923;28;20433;-84
2022/04/05 05:24:24;;;;;;;10.18;5.70;;;7.40;89.50;;;;;;6180098;28;20357;-84
2022/04/05 05:27:26;;;;;;;8.05;5.00;;;7.40;89.50;;;;;;6180381;28;20055;-84
2022/04/05 05:30:30;;;;;;;8.88;5.70;;;7.40;89.00;;;;;;6179365;28;20054;-84
2022/04/05 05:33:32;;;;;;;8.18;4.43;;;7.40;89.00;;;;;;6179347;28;20051;-83
2022/04/05 05:36:34;;;;;;;11.07;5.72;;;7.40;89.10;;;;;;6183371;28;20424;-84
2022/04/05 05:39:36;;;;;;;7.55;4.90;;;7.40;88.80;;;;;;6180436;28;20043;-84
2022/04/05 05:42:47;;;;;;;12.35;7.97;;;7.40;89.10;;;;;;6181315;28;20097;-84
2022/04/05 05:45:51;;;;;;;10.52;5.45;;;7.40;89.10;;;;;;6179066;28;20039;-84
2022/04/05 05:48:53;;;;;;;9.50;5.28;;;7.40;89.10;;;;;;6179363;28;20051;-84
2022/04/05 05:51:55;;;;;;;8.75;4.80;;;7.40;89.60;;;;;;6180301;28;20069;-84
2022/04/05 05:54:56;;;;;;;7.38;5.28;;;7.40;89.10;;;;;;6180162;28;20062;-84
2022/04/05 05:57:58;;;;;;;6.95;4.55;;;7.30;89.40;;;;;;6183099;28;20157;-84
2022/04/05 06:01:01;;;;;;;6.85;4.22;;;7.40;89.50;;;;;;6184154;28;20051;-84
2022/04/05 06:04:03;;;;;;;11.63;5.00;;;7.40;89.60;;;;;;6184506;28;20076;-83
2022/04/05 06:07:05;;;;;;;9.23;5.45;;;7.50;90.10;;;;;;6184368;28;20531;-84
2022/04/05 06:10:09;;;;;;;7.25;4.30;;;7.50;89.50;;;;;;6184090;28;20054;-84
2022/04/05 06:13:12;;;;;;;8.25;4.47;;;7.50;89.30;;;;;;6184453;28;20129;-84
2022/04/05 06:16:15;;;;;;;11.05;4.47;;;7.50;89.30;;;;;;6185366;28;20058;-84
2022/04/05 06:19:17;;;;;;;16.92;4.93;;;7.60;89.60;;;;;;6184446;28;20161;-83
2022/04/05 06:22:19;;;;;;;7.88;5.10;;;7.60;89.30;;;;;;6184824;28;20085;-84
2022/04/05 06:25:22;;;;;;;9.88;4.65;;;7.60;89.50;;;;;;6184249;28;20419;-84
2022/04/05 06:28:24;;;;;;;12.13;6.00;;;7.60;89.30;;;;;;6186704;28;20133;-83
2022/04/05 06:31:27;;;;;;;6.78;4.25;;;7.60;89.20;;;;;;6195900;28;20106;-83
2022/04/05 06:34:29;;;;;;;9.25;4.72;;;7.60;89.30;;;;;;6182359;28;20066;-84
2022/04/05 06:37:31;;;;;;;8.48;4.47;;;7.70;89.40;;;;;;6182236;28;20047;-83
2022/04/05 06:40:33;;;;;;;8.10;5.10;;;7.80;88.80;;;;;;6181621;28;20054;-83
2022/04/05 06:43:35;;;;;;;6.38;4.43;;;7.90;88.60;;;;;;6183010;28;20042;-82
2022/04/05 06:46:38;;;;;;;6.95;4.68;;;7.90;88.10;;;;;;6180888;28;20051;-82
2022/04/05 06:49:40;;;;;;;6.93;4.60;;;8.10;87.80;;;;;;6181188;28;20457;-83
2022/04/05 06:52:43;;;;;;;9.77;5.45;;;8.10;87.40;;;;;;6180217;28;20520;-83
2022/04/05 06:55:45;;;;;;;12.93;5.53;;;8.20;86.60;;;;;;6182680;28;20053;-83
2022/04/05 06:58:47;;;;;;;9.38;4.25;;;8.30;85.80;;;;;;6180845;28;20126;-83
2022/04/05 07:01:50;;;;;;;6.82;4.18;;;8.40;85.10;;;;;;6188961;28;20073;-83
2022/04/05 07:04:52;;;;;;;6.40;3.80;;;8.60;84.30;;;;;;6181534;28;20074;-83
2022/04/05 07:07:53;;;;;;;11.75;4.72;;;8.70;83.30;;;;;;6180860;28;20086;-83
2022/04/05 07:10:55;;;;;;;5.88;3.05;;;8.80;82.70;;;;;;6181933;28;20517;-84
2022/04/05 07:13:57;;;;;;;12.63;5.30;;;8.90;82.10;;;;;;6182037;28;20057;-82
2022/04/05 07:17:00;;;;;;;13.95;5.30;;;9.00;82.10;;;;;;6182567;28;20055;-83
2022/04/05 07:20:02;;;;;;;7.93;3.70;;;9.10;81.90;;;;;;6182098;28;20051;-83
2022/04/05 07:23:04;;;;;;;9.23;3.67;;;9.00;81.80;;;;;;6182633;28;20053;-83
2022/04/05 07:26:06;;;;;;;10.50;4.13;;;9.10;81.30;;;;;;6181557;28;20428;-83
2022/04/05 07:29:07;;;;;;;8.90;4.85;;;9.10;81.70;;;;;;6180397;28;20143;-83
2022/04/05 07:32:11;;;;;;;5.65;4.05;;;9.10;82.30;;;;;;6181681;28;20058;-83
2022/04/05 07:35:14;;;;;;;8.20;4.07;;;9.00;82.10;;;;;;6180340;28;20130;-83
2022/04/05 07:38:17;;;;;;;4.68;3.38;;;9.10;82.30;;;;;;6180626;28;20055;-82
2022/04/05 07:41:19;;;;;;;8.55;4.90;;;9.20;82.20;;;;;;6181692;28;20043;-83
2022/04/05 07:44:21;;;;;;;21.42;4.55;;;9.30;82.70;;;;;;6180405;28;20051;-82
2022/04/05 07:47:24;;;;;;;12.40;5.22;;;9.30;82.40;;;;;;6181103;28;20065;-83
2022/04/05 07:50:26;;;;;;;12.00;5.32;;;9.10;82.80;;;;;;6179721;28;20054;-82
2022/04/05 07:53:28;;;;;;;6.82;4.13;;;9.00;83.50;;;;;;6179795;28;20045;-82
2022/04/05 07:56:30;;;;;;;8.90;4.28;;;8.90;83.50;;;;;;6180544;28;20059;-83
2022/04/05 07:59:31;;;;;;;8.55;4.72;;;8.80;84.00;;;;;;6179631;28;20074;-83
2022/04/05 08:02:35;;;;;;;12.55;4.97;;;8.80;83.90;;;;;;6180858;28;20043;-82
2022/04/05 08:05:36;;;;;;;8.68;4.90;;;8.70;83.90;;;;;;6180233;28;20074;-83
2022/04/05 08:08:38;;;;;;;8.65;5.05;;;8.80;83.70;;;;;;6165780;28;20058;-83
2022/04/05 08:11:40;;;;;;;9.40;5.03;;;8.80;83.30;;;;;;6176273;28;20141;-83
2022/04/05 08:14:43;;;;;;;8.70;4.82;;;8.80;83.30;;;;;;6188082;28;20050;-80
2022/04/05 08:17:47;;;;;;;8.38;4.60;;;8.80;82.70;;;;;;6182921;28;20058;-84
2022/04/05 08:20:50;;;;;;;9.40;4.45;;;8.90;82.70;;;;;;6179786;28;20050;-81
2022/04/05 08:23:52;;;;;;;13.07;5.93;;;8.90;82.30;;;;;;6179725;28;20054;-82
2022/04/05 08:26:54;;;;;;;7.00;4.65;;;8.90;82.40;;;;;;6179263;28;20053;-82
2022/04/05 08:29:56;;;;;;;9.70;4.88;;;8.90;82.10;;;;;;6179950;28;20057;-82
2022/04/05 08:32:59;;;;;;;6.85;4.03;;;8.90;82.40;;;;;;6179346;28;20469;-83
2022/04/05 08:36:01;;;;;;;8.75;4.50;;;8.90;82.30;;;;;;6179437;28;20053;-83
2022/04/05 08:39:03;;;;;;;7.75;4.00;;;9.00;81.90;;;;;;6178156;28;20125;-83
2022/04/05 08:42:08;;;;;;;8.75;4.70;;;9.10;81.60;;;;;;6193158;28;20078;-83
2022/04/05 08:45:12;;;;;;;7.88;4.25;;;8.90;81.70;;;;;;6203764;28;20077;-83
2022/04/05 08:48:15;;;;;;;10.00;5.03;;;9.00;81.60;;;;;;6204939;28;20145;-83
2022/04/05 08:51:18;;;;;;;9.38;4.32;;;9.00;81.50;;;;;;6202455;28;20082;-83
2022/04/05 08:54:20;;;;;;;10.07;4.55;;;9.10;81.40;;;;;;6202893;28;20074;-82
2022/04/05 08:57:22;;;;;;;6.90;4.20;;;9.10;80.80;;;;;;6201834;28;20526;-82
2022/04/05 09:00:24;;;;;;;8.13;3.70;;;9.20;80.80;;;;;;6202248;28;20504;-84
2022/04/05 09:03:28;;;;;;;8.07;3.60;;;9.30;80.40;;;;;;6204807;28;20181;-84
2022/04/05 09:06:31;;;;;;;9.98;4.60;;;9.40;79.90;;;;;;6183846;28;20046;-82
2022/04/05 09:09:33;;;;;;;7.47;3.72;;;9.50;79.40;;;;;;6178379;28;20050;-78
2022/04/05 09:12:40;;;;;;;6.15;3.85;;;9.50;79.10;;;;;;6192352;28;20420;-79
2022/04/05 09:15:42;;;;;;;8.50;3.97;;;9.60;78.70;;;;;;6202299;28;20060;-79
2022/04/05 09:18:46;;;;;;;6.38;3.35;;;9.70;78.20;;;;;;6200928;28;20050;-79
2022/04/05 09:21:52;;;;;;;11.38;3.90;;;9.60;77.70;;;;;;6200363;28;20073;-78
2022/04/05 09:24:54;;;;;;;14.63;4.80;;;9.70;78.30;;;;;;6200325;28;20060;-79
2022/04/05 09:27:58;;;;;;;9.63;3.55;;;9.70;78.20;;;;;;6202863;28;20057;-79
2022/04/05 09:31:01;;;;;;;8.35;4.05;;;9.70;78.30;;;;;;6202587;28;20050;-80
2022/04/05 09:34:08;;;;;;;6.15;4.15;;;9.80;77.80;;;;;;6206511;28;20045;-78
2022/04/05 09:37:09;;;;;;;8.00;4.47;;;9.90;77.30;;;;;;6205524;28;20046;-79
2022/04/05 09:40:23;;;;;;;7.05;4.13;;;10.00;77.00;;;;;;6214429;28;20543;-81
2022/04/05 09:43:28;;;;;;;8.82;4.55;;;10.00;76.70;;;;;;6156700;28;20493;-80
2022/04/05 09:46:30;;;;;;;14.10;4.55;;;10.10;76.60;;;;;;6159098;28;20066;-79
2022/04/05 09:49:35;;;;;;;6.38;3.78;;;10.00;76.50;;;;;;6157892;28;20055;-81
2022/04/05 09:52:37;;;;;;;8.20;3.42;;;10.00;76.60;;;;;;6161157;28;20051;-81
2022/04/05 09:55:39;;;;;;;6.78;4.03;;;10.10;76.90;;;;;;6167031;28;20585;-80
2022/04/05 09:58:46;;;;;;;8.25;4.85;;;10.10;77.20;;;;;;6166460;28;20103;-80
2022/04/05 10:01:51;;;;;;;6.43;3.80;;;10.20;76.60;;;;;;6162649;28;20047;-80
2022/04/05 10:05:02;;;;;;;11.77;4.72;;;10.30;75.80;;;;;;6164373;28;20580;-81
2022/04/05 10:08:04;;;;;;;6.10;3.88;;;10.40;75.30;;;;;;6162499;28;20051;-81
2022/04/05 10:11:06;;;;;;;8.70;4.35;;;10.50;74.40;;;;;;6190229;28;20046;-80
2022/04/05 10:14:10;;;;;;;9.02;4.57;;;10.60;74.30;;;;;;6192571;28;20440;-81
2022/04/05 10:17:15;;;;;;;10.18;3.95;;;10.60;74.50;;;;;;6181952;28;20129;-79
2022/04/05 10:20:19;;;;;;;7.75;4.38;;;10.50;74.30;;;;;;6182410;28;20530;-81
2022/04/05 10:23:23;;;;;;;5.60;3.53;;;10.50;74.50;;;;;;6182192;28;20106;-82
2022/04/05 10:26:29;;;;;;;6.82;4.00;;;10.50;74.80;;;;;;6182778;28;20054;-82
2022/04/05 10:29:31;;;;;;;7.65;3.75;;;10.50;74.90;;;;;;6180752;28;20191;-79
2022/04/05 10:32:38;;;;;;;8.40;4.22;;;10.50;75.40;;;;;;6179909;28;20501;-82
2022/04/05 10:35:52;;;;;;;7.22;3.30;;;10.50;75.30;;;;;;6180696;28;20061;-79
2022/04/05 10:39:14;;;;;;;5.63;3.80;;;10.50;75.70;;;;;;6179041;28;20132;-80
2022/04/05 10:42:21;;;;;;;8.57;4.10;;;10.40;76.40;;;;;;6204616;28;20050;-83
2022/04/05 10:45:26;;;;;;;8.07;4.28;;;10.40;76.10;;;;;;6208966;28;20058;-80
2022/04/05 10:48:31;;;;;;;10.02;3.85;;;10.40;76.10;;;;;;6204981;28;20046;-84
2022/04/05 10:52:11;;;;;;;8.65;3.95;;;10.40;76.30;;;;;;6205463;28;20420;-83
2022/04/05 10:55:13;;;;;;;8.35;3.83;;;10.40;77.10;;;;;;6204327;28;20038;-82
2022/04/05 10:58:15;;;;;;;8.48;3.58;;;10.50;77.30;;;;;;6207558;28;20058;-81
2022/04/05 11:01:18;;;;;;;6.97;3.75;;;10.50;77.10;;;;;;6206819;28;20054;-80
2022/04/05 11:04:30;;;;;;;9.13;4.10;;;10.60;76.80;;;;;;6205290;28;20662;-82
2022/04/05 11:08:05;;;;;;;11.10;4.15;;;10.60;76.20;;;;;;6203823;28;20596;-82
2022/04/05 11:11:08;;;;;;;10.35;4.03;;;10.50;76.00;;;;;;6189769;28;20050;-80
2022/04/05 11:14:09;;;;;;;7.47;3.85;;;10.60;76.90;;;;;;6208561;28;20062;-82
2022/04/05 11:17:14;;;;;;;8.82;4.13;;;10.80;77.00;;;;;;6204202;28;20072;-82
2022/04/05 11:20:17;;;;;;;7.57;3.47;;;11.00;76.60;;;;;;6203180;28;20491;-81
2022/04/05 11:23:22;;;;;;;8.43;4.55;;;11.20;76.20;;;;;;6200239;28;20050;-82
2022/04/05 11:26:35;;;;;;;7.28;3.88;;;11.30;76.30;;;;;;6180057;28;20086;-81
2022/04/05 11:29:37;;;;;;;8.93;4.43;;;11.50;76.00;;;;;;6179878;28;20047;-80
2022/04/05 11:32:42;;;;;;;7.25;3.47;;;11.70;75.30;;;;;;6182637;28;20416;-82
2022/04/05 11:35:45;;;;;;;10.27;3.83;;;11.80;75.20;;;;;;6182015;28;20186;-82
2022/04/05 11:38:51;;;;;;;7.70;4.53;;;11.90;74.70;;;;;;6178467;28;20122;-84
2022/04/05 11:41:59;;;;;;;7.18;3.95;;;11.90;74.80;;;;;;6190802;28;20053;-83
2022/04/05 11:45:05;;;;;;;11.68;6.30;;;11.80;75.10;;;;;;6199348;28;20154;-83
2022/04/05 11:48:09;;;;;;;8.27;5.15;;;11.90;75.90;;;;;;6205646;28;20134;-82
2022/04/05 11:51:15;;;;;;;9.65;4.72;;;11.80;75.50;;;;;;6203825;28;20057;-82
2022/04/05 12:02:30;;;;;;;7.90;4.27;;;12.50;74.30;;;;;;6205657;28;20451;-84
2022/04/05 12:05:42;;;;;;;5.82;3.67;;;12.60;73.30;;;;;;6203826;28;20046;-83
2022/04/05 12:08:45;;;;;;;8.93;3.20;;;12.60;72.60;;;;;;6200276;28;20049;-83
2022/04/05 12:11:49;;;;;;;6.30;4.32;;;12.60;72.40;;;;;;6196196;28;20181;-82
2022/04/05 12:14:52;;;;;;;13.27;6.05;;;12.70;72.60;;;;;;6176855;28;20452;-82
2022/04/05 12:18:18;;;;;;;7.65;3.83;;;12.70;72.80;;;;;;6175976;28;20527;-82
2022/04/05 12:21:21;;;;;;;5.70;3.50;;;12.70;73.10;;;;;;6179256;28;20062;-83
2022/04/05 12:24:24;;;;;;;8.15;3.75;;;12.60;72.70;;;;;;6205034;28;20069;-84
2022/04/05 12:27:27;;;;;;;8.27;3.95;;;12.50;73.00;;;;;;6185518;28;20070;-84
2022/04/05 12:30:32;;;;;;;8.93;3.80;;;12.40;73.90;;;;;;6180662;28;20125;-83
2022/04/05 12:33:34;;;;;;;5.57;3.22;;;12.50;74.50;;;;;;6180679;28;20106;-83
2022/04/05 12:36:38;;;;;;;8.85;3.88;;;12.40;74.40;;;;;;6178526;28;20137;-84
2022/04/05 12:39:43;;;;;;;8.52;3.67;;;12.40;74.20;;;;;;6182406;28;20643;-84
2022/04/05 12:42:45;;;;;;;9.63;4.57;;;12.40;74.50;;;;;;6196827;28;20057;-84
2022/04/05 12:45:54;;;;;;;10.00;5.75;;;12.40;74.40;;;;;;6208870;28;20607;-83
2022/04/05 12:49:14;;;;;;;18.00;7.45;;;12.50;74.60;;;;;;6204841;28;20052;-82
2022/04/05 12:52:18;;;;;;;7.53;4.15;;;12.50;73.60;;;;;;6214446;28;20137;-82
2022/04/05 12:55:21;;;;;;;10.20;7.20;;;12.60;73.00;;;;;;6203587;28;20133;-83
2022/04/05 12:58:35;;;;;;;8.98;4.80;;;12.60;72.10;;;;;;6202824;28;20050;-85
2022/04/05 13:06:37;;;;;;;7.85;3.80;;;12.60;71.70;;;;;;6179377;28;20054;-85
2022/04/05 13:09:40;;;;;;;6.95;3.47;;;12.70;71.80;;;;;;6166010;28;20689;-83
2022/04/05 13:12:42;;;;;;;7.45;4.50;;;12.90;71.80;;;;;;6166943;28;20121;-85
2022/04/05 13:15:45;;;;;;;11.55;4.22;;;13.20;70.80;;;;;;6201165;28;20072;-81
2022/04/05 13:18:49;;;;;;;6.97;3.22;;;13.30;70.10;;;;;;6199930;28;20158;-82
2022/04/05 13:21:52;;;;;;;7.57;3.95;;;13.40;69.20;;;;;;6200575;28;20058;-82
2022/04/05 13:24:59;;;;;;;6.85;4.10;;;13.50;70.10;;;;;;6201294;28;20042;-81
2022/04/05 13:28:01;;;;;;;10.05;3.72;;;13.50;70.50;;;;;;6202094;28;20261;-81
2022/04/05 13:31:11;;;;;;;11.52;3.78;;;13.70;70.00;;;;;;6204490;28;20579;-83
2022/04/05 13:34:16;;;;;;;7.05;3.20;;;13.80;68.90;;;;;;6201630;28;20058;-82
2022/04/05 13:37:19;;;;;;;8.95;4.22;;;13.80;69.30;;;;;;6205986;28;20431;-84
2022/04/05 13:40:26;;;;;;;7.60;4.18;;;13.90;69.40;;;;;;6196821;28;20058;-84
2022/04/05 13:47:17;;;;;;;6.78;3.90;;;14.20;68.60;;;;;;6205464;28;20050;-83
2022/04/05 13:54:36;;;;;;;6.85;4.03;;;13.70;69.30;;;;;;6194198;28;20042;-85
2022/04/05 13:58:40;;;;;;;8.60;4.03;;;13.40;70.00;;;;;;6192794;28;20046;-83
2022/04/05 14:14:21;;;;;;;7.05;3.88;;;13.10;71.60;;;;;;6166822;28;20051;-82
2022/04/05 14:17:23;;;;;;;6.30;3.50;;;13.00;71.80;;;;;;6177180;28;20054;-80
2022/04/05 14:20:25;;;;;;;8.07;4.07;;;13.00;71.80;;;;;;6180137;28;20062;-81
2022/04/05 14:23:28;;;;;;;9.02;3.90;;;13.00;71.60;;;;;;6181691;28;20441;-83
2022/04/05 14:26:30;;;;;;;6.63;3.47;;;12.90;72.40;;;;;;6180681;28;20058;-82
2022/04/05 14:29:32;;;;;;;4.90;3.22;;;13.00;73.20;;;;;;6181170;28;20114;-83
2022/04/05 14:32:34;;;;;;;5.35;3.75;;;13.10;73.10;;;;;;6184514;28;20131;-82
2022/04/05 14:35:36;;;;;;;5.80;3.25;;;13.30;73.10;;;;;;6180528;28;20077;-82
2022/04/05 14:38:42;;;;;;;6.40;3.70;;;13.10;73.90;;;;;;6180878;28;20101;-81
2022/04/05 14:41:43;;;;;;;8.63;3.55;;;13.00;75.20;;;;;;6197478;28;20110;-81
2022/04/05 14:45:12;;;;;;;6.78;4.38;;;13.00;76.50;;;;;;6202949;28;20061;-84
2022/04/05 14:48:15;;;;;;;7.65;3.38;;;12.90;77.50;;;;;;6193787;28;20178;-82
2022/04/05 14:54:46;;;;;;;6.40;3.85;;;12.80;77.80;;;;;;6183625;28;20053;-83
2022/04/05 14:57:48;;;;;;;5.25;3.35;;;12.90;77.70;;;;;;6186290;28;20131;-82
2022/04/05 15:01:01;;;;;;;9.93;3.80;;;13.00;77.50;;;;;;6183358;28;20053;-85
2022/04/05 15:04:05;;;;;;;7.28;3.40;;;13.00;76.70;;;;;;6182326;28;20058;-83
2022/04/05 15:07:39;;;;;;;12.93;4.07;;;13.00;76.60;;;;;;6180823;28;20453;-84
2022/04/05 15:10:45;;;;;;;4.85;3.20;;;13.00;76.20;;;;;;6186096;28;20074;-82
2022/04/05 15:13:48;;;;;;;6.03;2.80;;;13.20;75.80;;;;;;6181407;28;20444;-81
2022/04/05 15:16:54;;;;;;;5.60;3.17;;;13.10;75.20;;;;;;6183652;28;20057;-83
2022/04/05 15:19:56;;;;;;;6.53;3.00;;;13.20;74.80;;;;;;6179959;28;20047;-83
2022/04/05 15:23:49;;;;;;;10.45;3.40;;;13.20;74.50;;;;;;6180488;28;20069;-81
2022/04/05 15:30:17;;;;;;;10.65;3.58;;;13.30;74.80;;;;;;6176173;28;20046;-81
2022/04/05 15:33:18;;;;;;;8.55;3.65;;;13.30;74.60;;;;;;6179528;28;20410;-82
2022/04/05 15:36:20;;;;;;;11.05;4.05;;;13.40;74.50;;;;;;6179597;28;20050;-81
2022/04/05 15:39:24;;;;;;;5.43;3.40;;;13.40;74.10;;;;;;6181579;28;20074;-82
2022/04/05 15:45:50;;;;;;;8.05;3.88;;;13.50;74.40;;;;;;6205595;28;20057;-82
2022/04/05 15:48:53;;;;;;;7.18;3.10;;;13.50;74.70;;;;;;6204426;28;20697;-82
2022/04/05 15:51:58;;;;;;;7.20;4.38;;;13.50;74.90;;;;;;6182102;28;20133;-81
2022/04/05 15:55:00;;;;;;;7.00;3.20;;;13.50;75.20;;;;;;6183117;28;20058;-81
2022/04/05 15:58:04;;;;;;;6.15;3.13;;;13.50;75.70;;;;;;6175218;28;20050;-81
2022/04/05 16:01:06;;;;;;;5.18;3.20;;;13.50;75.80;;;;;;6169513;28;20053;-81
2022/04/05 16:04:08;;;;;;;8.77;2.75;;;13.40;76.30;;;;;;6191313;28;20054;-81
2022/04/05 16:07:10;;;;;;;4.70;2.90;;;13.30;76.90;;;;;;6177198;28;20444;-81
2022/04/05 16:10:12;;;;;;;5.10;3.08;;;13.30;77.60;;;;;;6181933;28;20542;-81
2022/04/05 16:13:15;;;;;;;5.57;3.15;;;13.30;78.10;;;;;;6177235;28;20043;-81
2022/04/05 16:16:16;;;;;;;4.65;2.75;;;13.30;78.30;;;;;;6164643;28;20054;-81
2022/04/05 16:19:18;;;;;;;6.38;2.28;;;13.30;78.70;;;;;;6174754;28;20057;-82
2022/04/05 16:22:20;;;;;;;6.68;3.45;;;13.20;79.00;;;;;;6173903;28;20055;-80
2022/04/05 16:25:22;;;;;;;4.97;3.63;;;13.20;79.20;;;;;;6171249;28;20046;-81
2022/04/05 16:28:31;;;;;;;29.20;9.82;;;13.20;79.30;;;;;;6177191;28;20141;-80
2022/04/05 16:40:10;;;;;;;6.25;3.17;;;13.10;79.50;;;;;;6178208;28;20162;-82
2022/04/05 16:44:00;;;;;;;6.88;4.18;;;13.00;79.60;;;;;;6174999;28;20059;-84
2022/04/05 16:58:53;;;;;;;9.45;3.40;;;12.80;79.70;;;;;;6046518;29;20049;-81
2022/04/05 17:29:50;;;;;;;8.02;3.13;;;12.40;84.20;;;;;;6010536;29;20052;-82
2022/04/05 17:32:52;;;;;;;5.15;3.00;;;12.40;84.80;;;;;;6009316;29;20057;-82
2022/04/05 17:35:55;;;;;;;3.83;2.78;;;12.30;85.30;;;;;;6059006;29;20111;-83
2022/04/05 17:38:57;;;;;;;4.22;3.08;;;12.30;85.80;;;;;;6083361;29;20416;-80
2022/04/05 17:41:59;;;;;;;4.95;3.10;;;12.30;86.40;;;;;;6195087;28;20536;-85
2022/04/05 17:45:22;;;;;;;6.80;3.08;;;12.30;86.70;;;;;;6204992;28;20047;-84
2022/04/05 17:48:24;;;;;;;7.93;3.97;;;12.30;86.60;;;;;;6154000;28;20051;-82
2022/04/05 17:51:26;;;;;;;6.32;3.40;;;12.30;86.80;;;;;;6202717;28;20547;-83
2022/04/05 17:54:37;;;;;;;7.35;2.72;;;12.20;86.90;;;;;;6171438;28;20521;-84
2022/04/05 17:57:47;;;;;;;3.42;2.65;;;12.10;87.00;;;;;;6160103;28;20055;-85
2022/04/05 18:00:55;;;;;;;6.40;3.13;;;12.20;87.20;;;;;;6140493;28;20066;-83
2022/04/05 18:03:57;;;;;;;7.55;3.35;;;12.20;87.50;;;;;;6164833;28;20051;-84
2022/04/05 18:07:04;;;;;;;8.00;3.78;;;12.20;87.50;;;;;;6164467;28;20047;-82
2022/04/05 18:10:08;;;;;;;5.68;3.50;;;12.20;87.70;;;;;;6177507;28;20508;-84
2022/04/05 18:13:10;;;;;;;7.47;3.75;;;12.10;88.00;;;;;;6199189;28;20056;-84
2022/04/05 18:16:13;;;;;;;9.43;4.18;;;12.10;88.30;;;;;;6188161;28;20185;-84
2022/04/05 18:19:16;;;;;;;5.95;4.90;;;12.30;88.40;;;;;;6202654;28;20053;-84
2022/04/05 18:22:24;;;;;;;9.55;4.18;;;12.20;88.30;;;;;;6223931;23;20053;-83
2022/04/05 18:25:26;;;;;;;7.05;3.55;;;12.10;88.50;;;;;;6232417;28;20073;-85
2022/04/05 18:28:31;;;;;;;5.78;3.75;;;12.20;88.70;;;;;;6231935;28;20153;-83
2022/04/05 18:31:35;;;;;;;6.95;3.80;;;12.20;88.90;;;;;;6233366;28;20053;-84
2022/04/05 18:34:43;;;;;;;5.80;3.13;;;12.10;89.00;;;;;;6231838;28;20045;-84
2022/04/05 18:37:53;;;;;;;4.47;3.05;;;12.20;89.30;;;;;;6234233;28;20090;-88
2022/04/05 18:41:00;;;;;;;5.32;3.80;;;12.10;89.90;;;;;;6235482;28;20053;-85